sensor_id;sensor_type;location;lat;lon;timestamp;pressure;altitude;pressure_sealevel;temperature;humidity
54882;BME280;40775;51.448;4.742;2023-03-15T00:00:55;101149.66;;;5.82;100.00
54882;BME280;40775;51.448;4.742;2023-03-15T00:03:22;101144.25;;;5.78;100.00
54882;BME280;40775;51.448;4.742;2023-03-15T00:05:52;101158.03;;;5.75;100.00
54882;BME280;40775;51.448;4.742;2023-03-15T00:08:20;101158.16;;;5.78;100.00
54882;BME280;40775;51.448;4.742;2023-03-15T00:10:47;101160.63;;;5.75;100.00
54882;BME280;40775;51.448;4.742;2023-03-15T00:13:15;101158.03;;;5.75;100.00
54882;BME280;40775;51.448;4.742;2023-03-15T00:15:49;101171.47;;;5.84;100.00
54882;BME280;40775;51.448;4.742;2023-03-15T00:18:17;101172.41;;;5.86;100.00
54882;BME280;40775;51.448;4.742;2023-03-15T00:20:46;101167.91;;;5.82;100.00
54882;BME280;40775;51.448;4.742;2023-03-15T00:23:14;101167.00;;;5.82;100.00
54882;BME280;40775;51.448;4.742;2023-03-15T00:25:46;101171.84;;;5.74;100.00
54882;BME280;40775;51.448;4.742;2023-03-15T00:28:14;101176.28;;;5.75;100.00
54882;BME280;40775;51.448;4.742;2023-03-15T00:30:41;101182.88;;;5.69;100.00
54882;BME280;40775;51.448;4.742;2023-03-15T00:33:11;101185.88;;;5.76;100.00
54882;BME280;40775;51.448;4.742;2023-03-15T00:35:44;101184.09;;;5.75;100.00
54882;BME280;40775;51.448;4.742;2023-03-15T00:38:12;101190.59;;;5.85;100.00
54882;BME280;40775;51.448;4.742;2023-03-15T00:40:40;101179.00;;;5.78;100.00
54882;BME280;40775;51.448;4.742;2023-03-15T00:43:07;101183.59;;;5.84;100.00
54882;BME280;40775;51.448;4.742;2023-03-15T00:45:34;101182.56;;;5.80;100.00
54882;BME280;40775;51.448;4.742;2023-03-15T00:48:01;101191.66;;;5.71;100.00
54882;BME280;40775;51.448;4.742;2023-03-15T00:50:28;101206.72;;;5.76;100.00
54882;BME280;40775;51.448;4.742;2023-03-15T00:52:55;101188.75;;;5.82;100.00
54882;BME280;40775;51.448;4.742;2023-03-15T00:55:22;101195.78;;;5.85;100.00
54882;BME280;40775;51.448;4.742;2023-03-15T00:57:49;101193.00;;;5.80;100.00
54882;BME280;40775;51.448;4.742;2023-03-15T01:00:20;101210.19;;;5.77;100.00
54882;BME280;40775;51.448;4.742;2023-03-15T01:02:51;101209.44;;;5.79;100.00
54882;BME280;40775;51.448;4.742;2023-03-15T01:05:19;101204.91;;;5.75;100.00
54882;BME280;40775;51.448;4.742;2023-03-15T01:07:47;101200.59;;;5.76;100.00
54882;BME280;40775;51.448;4.742;2023-03-15T01:10:15;101207.34;;;5.72;100.00
54882;BME280;40775;51.448;4.742;2023-03-15T01:12:42;101200.75;;;5.79;100.00
54882;BME280;40775;51.448;4.742;2023-03-15T01:15:13;101213.91;;;5.82;100.00
54882;BME280;40775;51.448;4.742;2023-03-15T01:17:41;101210.13;;;5.75;100.00
54882;BME280;40775;51.448;4.742;2023-03-15T01:20:11;101207.66;;;5.78;100.00
54882;BME280;40775;51.448;4.742;2023-03-15T01:22:39;101211.97;;;5.78;100.00
54882;BME280;40775;51.448;4.742;2023-03-15T01:25:06;101208.06;;;5.87;100.00
54882;BME280;40775;51.448;4.742;2023-03-15T01:27:35;101213.06;;;5.83;100.00
54882;BME280;40775;51.448;4.742;2023-03-15T01:30:02;101214.22;;;5.70;100.00
54882;BME280;40775;51.448;4.742;2023-03-15T01:32:29;101220.38;;;5.72;100.00
54882;BME280;40775;51.448;4.742;2023-03-15T01:34:56;101220.13;;;5.85;100.00
54882;BME280;40775;51.448;4.742;2023-03-15T01:37:25;101213.91;;;5.82;100.00
54882;BME280;40775;51.448;4.742;2023-03-15T01:39:52;101223.75;;;5.89;100.00
54882;BME280;40775;51.448;4.742;2023-03-15T01:42:19;101217.47;;;5.84;100.00
54882;BME280;40775;51.448;4.742;2023-03-15T01:44:58;101226.84;;;5.80;100.00
54882;BME280;40775;51.448;4.742;2023-03-15T01:47:27;101232.88;;;5.79;100.00
54882;BME280;40775;51.448;4.742;2023-03-15T01:50:06;101226.94;;;5.82;100.00
54882;BME280;40775;51.448;4.742;2023-03-15T01:52:37;101219.03;;;5.80;100.00
54882;BME280;40775;51.448;4.742;2023-03-15T01:55:11;101236.19;;;5.75;100.00
54882;BME280;40775;51.448;4.742;2023-03-15T01:57:52;101246.59;;;5.75;100.00
54882;BME280;40775;51.448;4.742;2023-03-15T02:00:22;101269.38;;;5.62;100.00
54882;BME280;40775;51.448;4.742;2023-03-15T02:02:53;101274.59;;;5.44;100.00
54882;BME280;40775;51.448;4.742;2023-03-15T02:05:32;101278.63;;;5.37;100.00
54882;BME280;40775;51.448;4.742;2023-03-15T02:08:02;101269.50;;;5.27;100.00
54882;BME280;40775;51.448;4.742;2023-03-15T02:10:50;101277.53;;;5.32;100.00
54882;BME280;40775;51.448;4.742;2023-03-15T02:13:21;101278.19;;;5.28;100.00
54882;BME280;40775;51.448;4.742;2023-03-15T02:15:51;101278.94;;;5.08;100.00
54882;BME280;40775;51.448;4.742;2023-03-15T02:18:20;101278.81;;;5.22;100.00
54882;BME280;40775;51.448;4.742;2023-03-15T02:23:32;101300.59;;;5.24;100.00
54882;BME280;40775;51.448;4.742;2023-03-15T02:26:57;101281.91;;;5.15;100.00
54882;BME280;40775;51.448;4.742;2023-03-15T02:29:17;101281.69;;;5.28;100.00
54882;BME280;40775;51.448;4.742;2023-03-15T02:31:44;101275.22;;;5.20;100.00
54882;BME280;40775;51.448;4.742;2023-03-15T02:34:11;101277.59;;;5.34;100.00
54882;BME280;40775;51.448;4.742;2023-03-15T02:36:38;101273.13;;;5.31;100.00
54882;BME280;40775;51.448;4.742;2023-03-15T02:39:17;101291.28;;;5.30;100.00
54882;BME280;40775;51.448;4.742;2023-03-15T02:41:50;101289.66;;;5.32;100.00
54882;BME280;40775;51.448;4.742;2023-03-15T02:44:41;101296.09;;;5.40;100.00
54882;BME280;40775;51.448;4.742;2023-03-15T02:47:21;101293.34;;;5.37;100.00
54882;BME280;40775;51.448;4.742;2023-03-15T02:49:52;101309.28;;;5.43;100.00
54882;BME280;40775;51.448;4.742;2023-03-15T02:52:21;101304.13;;;5.44;100.00
54882;BME280;40775;51.448;4.742;2023-03-15T02:54:49;101308.84;;;5.51;100.00
54882;BME280;40775;51.448;4.742;2023-03-15T02:57:18;101309.72;;;5.52;100.00
54882;BME280;40775;51.448;4.742;2023-03-15T02:59:46;101312.09;;;5.47;100.00
54882;BME280;40775;51.448;4.742;2023-03-15T03:02:17;101318.38;;;5.51;100.00
54882;BME280;40775;51.448;4.742;2023-03-15T03:04:44;101322.50;;;5.47;100.00
54882;BME280;40775;51.448;4.742;2023-03-15T03:07:11;101332.91;;;5.47;100.00
54882;BME280;40775;51.448;4.742;2023-03-15T03:09:38;101329.59;;;5.50;100.00
54882;BME280;40775;51.448;4.742;2023-03-15T03:12:06;101336.53;;;5.49;100.00
54882;BME280;40775;51.448;4.742;2023-03-15T03:14:33;101343.25;;;5.46;100.00
54882;BME280;40775;51.448;4.742;2023-03-15T03:17:00;101336.34;;;5.46;100.00
54882;BME280;40775;51.448;4.742;2023-03-15T03:19:27;101339.69;;;5.44;100.00
54882;BME280;40775;51.448;4.742;2023-03-15T03:21:54;101343.78;;;5.39;100.00
54882;BME280;40775;51.448;4.742;2023-03-15T03:24:21;101347.34;;;5.41;100.00
54882;BME280;40775;51.448;4.742;2023-03-15T03:26:51;101350.63;;;5.37;100.00
54882;BME280;40775;51.448;4.742;2023-03-15T03:29:24;101354.94;;;5.36;100.00
54882;BME280;40775;51.448;4.742;2023-03-15T03:31:51;101352.19;;;5.33;100.00
54882;BME280;40775;51.448;4.742;2023-03-15T03:34:18;101362.47;;;5.30;100.00
54882;BME280;40775;51.448;4.742;2023-03-15T03:36:45;101359.94;;;5.32;100.00
54882;BME280;40775;51.448;4.742;2023-03-15T03:39:14;101366.56;;;5.25;100.00
54882;BME280;40775;51.448;4.742;2023-03-15T03:41:41;101370.88;;;5.24;100.00
54882;BME280;40775;51.448;4.742;2023-03-15T03:44:08;101367.13;;;5.19;100.00
54882;BME280;40775;51.448;4.742;2023-03-15T03:46:35;101383.31;;;5.14;100.00
54882;BME280;40775;51.448;4.742;2023-03-15T03:49:02;101379.97;;;5.16;100.00
54882;BME280;40775;51.448;4.742;2023-03-15T03:51:29;101384.22;;;5.14;100.00
54882;BME280;40775;51.448;4.742;2023-03-15T03:54:00;101398.72;;;5.09;100.00
54882;BME280;40775;51.448;4.742;2023-03-15T03:56:27;101393.13;;;5.02;100.00
54882;BME280;40775;51.448;4.742;2023-03-15T03:58:55;101399.94;;;5.00;100.00
54882;BME280;40775;51.448;4.742;2023-03-15T04:01:22;101404.25;;;4.99;100.00
54882;BME280;40775;51.448;4.742;2023-03-15T04:03:49;101410.28;;;4.98;100.00
54882;BME280;40775;51.448;4.742;2023-03-15T04:06:16;101416.16;;;4.94;100.00
54882;BME280;40775;51.448;4.742;2023-03-15T04:08:44;101415.34;;;4.79;100.00
54882;BME280;40775;51.448;4.742;2023-03-15T04:11:11;101423.13;;;4.79;100.00
54882;BME280;40775;51.448;4.742;2023-03-15T04:13:37;101428.84;;;4.72;100.00
54882;BME280;40775;51.448;4.742;2023-03-15T04:16:05;101427.06;;;4.71;100.00
54882;BME280;40775;51.448;4.742;2023-03-15T04:18:32;101432.50;;;4.75;100.00
54882;BME280;40775;51.448;4.742;2023-03-15T04:20:59;101434.19;;;4.75;100.00
54882;BME280;40775;51.448;4.742;2023-03-15T04:23:26;101429.50;;;4.68;100.00
54882;BME280;40775;51.448;4.742;2023-03-15T04:25:53;101433.88;;;4.69;100.00
54882;BME280;40775;51.448;4.742;2023-03-15T04:28:21;101431.50;;;4.57;100.00
54882;BME280;40775;51.448;4.742;2023-03-15T04:30:49;101433.78;;;4.67;100.00
54882;BME280;40775;51.448;4.742;2023-03-15T04:33:16;101440.50;;;4.63;100.00
54882;BME280;40775;51.448;4.742;2023-03-15T04:35:43;101434.50;;;4.64;100.00
54882;BME280;40775;51.448;4.742;2023-03-15T04:38:10;101441.81;;;4.55;100.00
54882;BME280;40775;51.448;4.742;2023-03-15T04:40:37;101449.84;;;4.60;100.00
54882;BME280;40775;51.448;4.742;2023-03-15T04:43:04;101445.06;;;4.51;100.00
54882;BME280;40775;51.448;4.742;2023-03-15T04:45:32;101449.44;;;4.52;100.00
54882;BME280;40775;51.448;4.742;2023-03-15T04:48:01;101457.41;;;4.55;100.00
54882;BME280;40775;51.448;4.742;2023-03-15T04:50:29;101457.81;;;4.47;100.00
54882;BME280;40775;51.448;4.742;2023-03-15T04:52:59;101464.47;;;4.42;100.00
54882;BME280;40775;51.448;4.742;2023-03-15T04:55:29;101460.91;;;4.40;100.00
54882;BME280;40775;51.448;4.742;2023-03-15T04:57:56;101466.63;;;4.34;100.00
54882;BME280;40775;51.448;4.742;2023-03-15T05:00:24;101476.13;;;4.33;100.00
54882;BME280;40775;51.448;4.742;2023-03-15T05:02:51;101477.75;;;4.31;100.00
54882;BME280;40775;51.448;4.742;2023-03-15T05:05:22;101481.34;;;4.33;100.00
54882;BME280;40775;51.448;4.742;2023-03-15T05:07:49;101472.81;;;4.36;100.00
54882;BME280;40775;51.448;4.742;2023-03-15T05:10:17;101476.88;;;4.31;100.00
54882;BME280;40775;51.448;4.742;2023-03-15T05:12:45;101471.50;;;4.28;100.00
54882;BME280;40775;51.448;4.742;2023-03-15T05:15:12;101465.56;;;4.30;100.00
54882;BME280;40775;51.448;4.742;2023-03-15T05:17:39;101466.63;;;4.34;100.00
54882;BME280;40775;51.448;4.742;2023-03-15T05:20:08;101459.72;;;4.18;100.00
54882;BME280;40775;51.448;4.742;2023-03-15T05:22:39;101468.31;;;4.17;100.00
54882;BME280;40775;51.448;4.742;2023-03-15T05:25:08;101483.75;;;4.14;100.00
54882;BME280;40775;51.448;4.742;2023-03-15T05:27:36;101486.34;;;4.14;100.00
54882;BME280;40775;51.448;4.742;2023-03-15T05:30:05;101495.84;;;4.14;100.00
54882;BME280;40775;51.448;4.742;2023-03-15T05:32:33;101502.53;;;4.10;100.00
54882;BME280;40775;51.448;4.742;2023-03-15T05:35:05;101505.44;;;4.00;100.00
54882;BME280;40775;51.448;4.742;2023-03-15T05:37:34;101502.84;;;4.00;100.00
54882;BME280;40775;51.448;4.742;2023-03-15T05:40:18;101515.66;;;3.97;100.00
54882;BME280;40775;51.448;4.742;2023-03-15T05:42:53;101514.13;;;4.00;100.00
54882;BME280;40775;51.448;4.742;2023-03-15T05:45:26;101517.25;;;3.95;100.00
54882;BME280;40775;51.448;4.742;2023-03-15T05:47:53;101524.97;;;3.93;100.00
54882;BME280;40775;51.448;4.742;2023-03-15T05:50:20;101517.81;;;3.89;100.00
54882;BME280;40775;51.448;4.742;2023-03-15T05:52:50;101526.59;;;3.91;100.00
54882;BME280;40775;51.448;4.742;2023-03-15T05:55:17;101522.19;;;3.90;100.00
54882;BME280;40775;51.448;4.742;2023-03-15T05:57:45;101525.50;;;3.88;100.00
54882;BME280;40775;51.448;4.742;2023-03-15T06:00:12;101537.31;;;3.83;100.00
54882;BME280;40775;51.448;4.742;2023-03-15T06:02:41;101534.63;;;3.81;100.00
54882;BME280;40775;51.448;4.742;2023-03-15T06:05:08;101547.69;;;3.83;100.00
54882;BME280;40775;51.448;4.742;2023-03-15T06:07:36;101555.22;;;3.78;100.00
54882;BME280;40775;51.448;4.742;2023-03-15T06:10:06;101564.38;;;3.71;100.00
54882;BME280;40775;51.448;4.742;2023-03-15T06:12:33;101566.88;;;3.70;100.00
54882;BME280;40775;51.448;4.742;2023-03-15T06:15:00;101573.66;;;3.83;100.00
54882;BME280;40775;51.448;4.742;2023-03-15T06:17:28;101576.72;;;3.76;100.00
54882;BME280;40775;51.448;4.742;2023-03-15T06:19:55;101579.69;;;3.82;100.00
54882;BME280;40775;51.448;4.742;2023-03-15T06:22:22;101581.59;;;3.84;100.00
54882;BME280;40775;51.448;4.742;2023-03-15T06:24:50;101588.91;;;3.91;100.00
54882;BME280;40775;51.448;4.742;2023-03-15T06:27:17;101601.28;;;3.95;100.00
54882;BME280;40775;51.448;4.742;2023-03-15T06:29:48;101608.28;;;3.96;100.00
54882;BME280;40775;51.448;4.742;2023-03-15T06:32:16;101622.34;;;3.85;100.00
54882;BME280;40775;51.448;4.742;2023-03-15T06:34:43;101625.25;;;3.77;100.00
54882;BME280;40775;51.448;4.742;2023-03-15T06:37:10;101636.13;;;3.84;100.00
54882;BME280;40775;51.448;4.742;2023-03-15T06:39:44;101640.50;;;3.85;100.00
54882;BME280;40775;51.448;4.742;2023-03-15T06:42:11;101640.88;;;3.91;100.00
54882;BME280;40775;51.448;4.742;2023-03-15T06:44:39;101645.88;;;4.03;100.00
54882;BME280;40775;51.448;4.742;2023-03-15T06:47:09;101650.97;;;6.72;100.00
54882;BME280;40775;51.448;4.742;2023-03-15T06:49:36;101650.25;;;8.27;100.00
54882;BME280;40775;51.448;4.742;2023-03-15T06:52:05;101641.25;;;9.74;100.00
54882;BME280;40775;51.448;4.742;2023-03-15T06:54:33;101617.84;;;10.55;100.00
54882;BME280;40775;51.448;4.742;2023-03-15T06:57:00;101614.06;;;11.01;100.00
54882;BME280;40775;51.448;4.742;2023-03-15T06:59:27;101618.59;;;11.35;100.00
54882;BME280;40775;51.448;4.742;2023-03-15T07:01:54;101621.38;;;11.71;100.00
54882;BME280;40775;51.448;4.742;2023-03-15T07:04:21;101624.41;;;11.83;100.00
54882;BME280;40775;51.448;4.742;2023-03-15T07:06:48;101633.75;;;12.05;100.00
54882;BME280;40775;51.448;4.742;2023-03-15T07:09:15;101628.75;;;12.14;100.00
54882;BME280;40775;51.448;4.742;2023-03-15T07:11:42;101637.78;;;12.24;100.00
54882;BME280;40775;51.448;4.742;2023-03-15T07:14:09;101631.94;;;12.34;100.00
54882;BME280;40775;51.448;4.742;2023-03-15T07:16:36;101635.63;;;12.42;100.00
54882;BME280;40775;51.448;4.742;2023-03-15T07:19:03;101641.91;;;12.47;100.00
54882;BME280;40775;51.448;4.742;2023-03-15T07:21:30;101649.13;;;12.56;100.00
54882;BME280;40775;51.448;4.742;2023-03-15T07:23:57;101651.97;;;12.63;100.00
54882;BME280;40775;51.448;4.742;2023-03-15T07:26:24;101658.28;;;12.70;100.00
54882;BME280;40775;51.448;4.742;2023-03-15T07:28:51;101661.09;;;12.78;100.00
54882;BME280;40775;51.448;4.742;2023-03-15T07:31:18;101649.84;;;12.85;100.00
54882;BME280;40775;51.448;4.742;2023-03-15T07:33:45;101657.00;;;12.89;100.00
54882;BME280;40775;51.448;4.742;2023-03-15T07:36:12;101658.00;;;12.94;100.00
54882;BME280;40775;51.448;4.742;2023-03-15T07:38:39;101666.00;;;12.98;100.00
54882;BME280;40775;51.448;4.742;2023-03-15T07:41:09;101667.81;;;13.01;100.00
54882;BME280;40775;51.448;4.742;2023-03-15T07:43:36;101668.78;;;13.05;100.00
54882;BME280;40775;51.448;4.742;2023-03-15T07:46:03;101673.22;;;13.07;100.00
54882;BME280;40775;51.448;4.742;2023-03-15T07:48:30;101675.94;;;13.10;100.00
54882;BME280;40775;51.448;4.742;2023-03-15T07:50:57;101677.72;;;13.11;100.00
54882;BME280;40775;51.448;4.742;2023-03-15T07:53:24;101676.88;;;13.14;100.00
54882;BME280;40775;51.448;4.742;2023-03-15T07:55:51;101682.31;;;13.18;100.00
54882;BME280;40775;51.448;4.742;2023-03-15T07:58:19;101694.72;;;13.22;100.00
54882;BME280;40775;51.448;4.742;2023-03-15T08:00:46;101702.72;;;13.27;100.00
54882;BME280;40775;51.448;4.742;2023-03-15T08:03:13;101706.31;;;13.30;100.00
54882;BME280;40775;51.448;4.742;2023-03-15T08:05:40;101713.38;;;13.32;100.00
54882;BME280;40775;51.448;4.742;2023-03-15T08:08:07;101706.38;;;13.34;100.00
54882;BME280;40775;51.448;4.742;2023-03-15T08:10:34;101711.66;;;13.34;100.00
54882;BME280;40775;51.448;4.742;2023-03-15T08:13:02;101715.25;;;13.37;100.00
54882;BME280;40775;51.448;4.742;2023-03-15T08:15:29;101717.91;;;13.37;100.00
54882;BME280;40775;51.448;4.742;2023-03-15T08:17:56;101723.34;;;13.43;100.00
54882;BME280;40775;51.448;4.742;2023-03-15T08:20:23;101713.78;;;13.48;100.00
54882;BME280;40775;51.448;4.742;2023-03-15T08:22:50;101716.38;;;13.47;100.00
54882;BME280;40775;51.448;4.742;2023-03-15T08:25:22;101721.72;;;13.50;100.00
54882;BME280;40775;51.448;4.742;2023-03-15T08:27:50;101717.38;;;13.52;100.00
54882;BME280;40775;51.448;4.742;2023-03-15T08:30:19;101719.16;;;13.53;100.00
54882;BME280;40775;51.448;4.742;2023-03-15T08:32:48;101719.13;;;13.51;100.00
54882;BME280;40775;51.448;4.742;2023-03-15T08:35:19;101722.72;;;13.55;100.00
54882;BME280;40775;51.448;4.742;2023-03-15T08:37:47;101726.31;;;13.58;100.00
54882;BME280;40775;51.448;4.742;2023-03-15T08:40:16;101720.16;;;13.59;100.00
54882;BME280;40775;51.448;4.742;2023-03-15T08:42:45;101723.72;;;13.61;100.00
54882;BME280;40775;51.448;4.742;2023-03-15T08:45:12;101732.47;;;13.59;100.00
54882;BME280;40775;51.448;4.742;2023-03-15T08:47:39;101741.41;;;13.66;100.00
54882;BME280;40775;51.448;4.742;2023-03-15T08:50:12;101731.69;;;13.63;100.00
54882;BME280;40775;51.448;4.742;2023-03-15T08:52:41;101738.88;;;13.70;100.00
54882;BME280;40775;51.448;4.742;2023-03-15T08:55:09;101736.25;;;13.70;100.00
54882;BME280;40775;51.448;4.742;2023-03-15T08:57:40;101743.31;;;13.71;100.00
54882;BME280;40775;51.448;4.742;2023-03-15T09:00:10;101749.56;;;13.76;100.00
54882;BME280;40775;51.448;4.742;2023-03-15T09:02:50;101745.06;;;13.71;100.00
54882;BME280;40775;51.448;4.742;2023-03-15T09:05:22;101751.91;;;13.64;100.00
54882;BME280;40775;51.448;4.742;2023-03-15T09:07:49;101753.00;;;13.72;100.00
54882;BME280;40775;51.448;4.742;2023-03-15T09:10:19;101751.81;;;13.59;100.00
54882;BME280;40775;51.448;4.742;2023-03-15T09:12:51;101752.03;;;13.69;100.00
54882;BME280;40775;51.448;4.742;2023-03-15T09:15:19;101754.72;;;13.70;100.00
54882;BME280;40775;51.448;4.742;2023-03-15T09:17:48;101746.06;;;13.77;100.00
54882;BME280;40775;51.448;4.742;2023-03-15T09:20:19;101746.97;;;13.78;100.00
54882;BME280;40775;51.448;4.742;2023-03-15T09:22:52;101747.78;;;13.75;100.00
54882;BME280;40775;51.448;4.742;2023-03-15T09:25:20;101751.41;;;13.80;100.00
54882;BME280;40775;51.448;4.742;2023-03-15T09:27:47;101751.41;;;13.80;100.00
54882;BME280;40775;51.448;4.742;2023-03-15T09:30:14;101748.78;;;13.80;100.00
54882;BME280;40775;51.448;4.742;2023-03-15T09:32:42;101753.09;;;13.77;100.00
54882;BME280;40775;51.448;4.742;2023-03-15T09:35:14;101753.19;;;13.81;100.00
54882;BME280;40775;51.448;4.742;2023-03-15T09:37:41;101743.53;;;13.82;100.00
54882;BME280;40775;51.448;4.742;2023-03-15T09:40:56;101733.88;;;13.82;100.00
54882;BME280;40775;51.448;4.742;2023-03-15T09:46:55;101750.59;;;13.83;100.00
54882;BME280;40775;51.448;4.742;2023-03-15T09:52:02;101753.28;;;13.86;100.00
54882;BME280;40775;51.448;4.742;2023-03-15T09:54:42;101755.91;;;13.84;100.00
54882;BME280;40775;51.448;4.742;2023-03-15T10:00:22;101758.63;;;13.89;100.00
54882;BME280;40775;51.448;4.742;2023-03-15T10:02:59;101760.38;;;13.88;100.00
54882;BME280;40775;51.448;4.742;2023-03-15T10:05:41;101762.91;;;13.82;100.00
54882;BME280;40775;51.448;4.742;2023-03-15T10:08:17;101770.00;;;13.85;100.00
54882;BME280;40775;51.448;4.742;2023-03-15T10:11:04;101758.56;;;13.86;100.00
54882;BME280;40775;51.448;4.742;2023-03-15T10:13:56;101762.03;;;13.83;100.00
54882;BME280;40775;51.448;4.742;2023-03-15T10:16:42;101766.50;;;13.87;100.00
54882;BME280;40775;51.448;4.742;2023-03-15T10:22:02;101761.25;;;13.87;100.00
54882;BME280;40775;51.448;4.742;2023-03-15T10:24:50;101760.31;;;13.85;100.00
54882;BME280;40775;51.448;4.742;2023-03-15T10:27:58;101772.66;;;13.86;100.00
54882;BME280;40775;51.448;4.742;2023-03-15T10:30:31;101770.00;;;13.86;100.00
54882;BME280;40775;51.448;4.742;2023-03-15T10:33:13;101779.72;;;13.87;100.00
54882;BME280;40775;51.448;4.742;2023-03-15T10:35:41;101784.19;;;13.91;100.00
54882;BME280;40775;51.448;4.742;2023-03-15T10:38:21;101783.34;;;13.92;100.00
54882;BME280;40775;51.448;4.742;2023-03-15T10:40:51;101788.63;;;13.92;100.00
54882;BME280;40775;51.448;4.742;2023-03-15T10:43:32;101792.97;;;13.90;100.00
54882;BME280;40775;51.448;4.742;2023-03-15T10:46:08;101789.44;;;13.90;100.00
54882;BME280;40775;51.448;4.742;2023-03-15T10:48:39;101797.34;;;13.88;100.00
54882;BME280;40775;51.448;4.742;2023-03-15T10:51:29;101799.84;;;13.82;100.00
54882;BME280;40775;51.448;4.742;2023-03-15T10:54:17;101804.34;;;13.86;100.00
54882;BME280;40775;51.448;4.742;2023-03-15T10:57:03;101808.78;;;13.89;100.00
54882;BME280;40775;51.448;4.742;2023-03-15T10:59:34;101801.72;;;13.88;100.00
54882;BME280;40775;51.448;4.742;2023-03-15T11:07:26;101813.25;;;13.91;100.00
54882;BME280;40775;51.448;4.742;2023-03-15T11:09:59;101808.03;;;13.95;100.00
54882;BME280;40775;51.448;4.742;2023-03-15T11:12:32;101812.38;;;13.92;100.00
54882;BME280;40775;51.448;4.742;2023-03-15T11:15:12;101818.53;;;13.91;100.00
54882;BME280;40775;51.448;4.742;2023-03-15T11:17:46;101829.06;;;13.91;100.00
54882;BME280;40775;51.448;4.742;2023-03-15T11:20:33;101821.19;;;13.93;100.00
54882;BME280;40775;51.448;4.742;2023-03-15T11:23:28;101826.50;;;13.95;100.00
54882;BME280;40775;51.448;4.742;2023-03-15T11:25:57;101834.38;;;13.93;100.00
54882;BME280;40775;51.448;4.742;2023-03-15T11:28:28;101833.47;;;13.91;100.00
54882;BME280;40775;51.448;4.742;2023-03-15T11:30:57;101831.72;;;13.91;100.00
54882;BME280;40775;51.448;4.742;2023-03-15T11:36:18;101831.09;;;14.02;100.00
54882;BME280;40775;51.448;4.742;2023-03-15T11:38:47;101825.88;;;14.05;100.00
54882;BME280;40775;51.448;4.742;2023-03-15T11:41:38;101826.69;;;14.02;100.00
54882;BME280;40775;51.448;4.742;2023-03-15T11:44:46;101822.09;;;13.93;100.00
54882;BME280;40775;51.448;4.742;2023-03-15T11:47:32;101813.31;;;13.95;100.00
54882;BME280;40775;51.448;4.742;2023-03-15T11:50:00;101810.81;;;14.01;100.00
54882;BME280;40775;51.448;4.742;2023-03-15T11:52:29;101816.97;;;14.00;100.00
54882;BME280;40775;51.448;4.742;2023-03-15T11:55:01;101813.47;;;14.01;100.00
54882;BME280;40775;51.448;4.742;2023-03-15T11:57:47;101811.72;;;14.01;100.00
54882;BME280;40775;51.448;4.742;2023-03-15T12:16:38;101803.25;;;14.17;100.00
54882;BME280;40775;51.448;4.742;2023-03-15T12:19:16;101807.66;;;14.18;100.00
54882;BME280;40775;51.448;4.742;2023-03-15T12:21:54;101806.88;;;14.24;100.00
54882;BME280;40775;51.448;4.742;2023-03-15T12:24:27;101803.22;;;14.16;100.00
54882;BME280;40775;51.448;4.742;2023-03-15T12:27:18;101802.41;;;14.20;100.00
54882;BME280;40775;51.448;4.742;2023-03-15T12:29:47;101810.34;;;14.20;100.00
54882;BME280;40775;51.448;4.742;2023-03-15T12:32:17;101803.19;;;14.14;100.00
54882;BME280;40775;51.448;4.742;2023-03-15T12:34:53;101811.06;;;14.13;100.00
54882;BME280;40775;51.448;4.742;2023-03-15T12:56:29;101805.41;;;14.37;100.00
54882;BME280;40775;51.448;4.742;2023-03-15T12:59:14;101805.44;;;14.38;100.00
54882;BME280;40775;51.448;4.742;2023-03-15T13:01:44;101801.03;;;14.39;100.00
54882;BME280;40775;51.448;4.742;2023-03-15T13:04:12;101801.03;;;14.39;100.00
54882;BME280;40775;51.448;4.742;2023-03-15T13:09:17;101787.97;;;14.45;100.00
54882;BME280;40775;51.448;4.742;2023-03-15T13:14:52;101790.59;;;14.43;100.00
54882;BME280;40775;51.448;4.742;2023-03-15T13:17:28;101797.63;;;14.43;100.00
54882;BME280;40775;51.448;4.742;2023-03-15T13:28:40;101783.50;;;14.42;100.00
54882;BME280;40775;51.448;4.742;2023-03-15T13:33:56;101791.50;;;14.44;100.00
54882;BME280;40775;51.448;4.742;2023-03-15T13:36:41;101790.53;;;14.42;100.00
54882;BME280;40775;51.448;4.742;2023-03-15T13:39:26;101795.00;;;14.43;100.00
54882;BME280;40775;51.448;4.742;2023-03-15T13:42:14;101795.03;;;14.46;100.00
54882;BME280;40775;51.448;4.742;2023-03-15T13:44:42;101797.84;;;14.52;100.00
54882;BME280;40775;51.448;4.742;2023-03-15T13:47:19;101798.72;;;14.52;100.00
54882;BME280;40775;51.448;4.742;2023-03-15T13:49:51;101799.72;;;14.59;100.00
54882;BME280;40775;51.448;4.742;2023-03-15T13:52:18;101797.06;;;14.58;100.00
54882;BME280;40775;51.448;4.742;2023-03-15T13:54:45;101798.88;;;14.60;100.00
54882;BME280;40775;51.448;4.742;2023-03-15T13:57:18;101803.19;;;14.57;100.00
54882;BME280;40775;51.448;4.742;2023-03-15T13:59:57;101807.56;;;14.55;100.00
54882;BME280;40775;51.448;4.742;2023-03-15T14:02:47;101796.13;;;14.54;100.00
54882;BME280;40775;51.448;4.742;2023-03-15T14:05:24;101808.50;;;14.57;100.00
54882;BME280;40775;51.448;4.742;2023-03-15T14:08:01;101797.13;;;14.61;100.00
54882;BME280;40775;51.448;4.742;2023-03-15T14:10:36;101799.81;;;14.64;100.00
54882;BME280;40775;51.448;4.742;2023-03-15T14:13:32;101800.59;;;14.58;100.00
54882;BME280;40775;51.448;4.742;2023-03-15T14:16:13;101803.19;;;14.57;100.00
54882;BME280;40775;51.448;4.742;2023-03-15T14:18:41;101810.28;;;14.58;100.00
54882;BME280;40775;51.448;4.742;2023-03-15T14:21:29;101803.19;;;14.57;100.00